Aérodrome :
LOGIN :

S'inscrire | Disclaimer

   EN    FR    IT 

 










Légende :    VFR   VFR Marginal   IFR   IFR Intensif   IFR Très Intensif
Visi : 
Plafond : 
>= 8 km
>= 3000ft
5 à 8 km
1000 à 3000 ft
1500m à 5 km
500 à 1000 ft
800 à 1500m
200 à 500 ft
< 800m
< 200 ft
Symboles :   Orages  Brouillard  Fortes neiges  Fortes précipitations  Vent > 20 kt
SIGMETs :   Divers  Orages  Givrage  Turbulence  Onde Orograph.  Cendres Volcan.






- Altitude de l'aérodrome : 354 ft
- Code IATA : OER


ESNO - Örnsköldsvik

DERNIER METAR :
  • 191220Z AUTO 01009KT 340V040 6000 RA OVC007/// 03/02 Q1002

METARs EXPIRÉS :
  • 191150Z AUTO 02009KT 350V050 6000 RA OVC006/// 04/03 Q1002
  • 191120Z AUTO 01009KT 340V050 9000 RA OVC006/// 04/03 Q1002
  • 191050Z AUTO 01010KT 330V050 7000 -RA OVC005/// 04/03 Q1002
  • 191020Z AUTO 01010KT 340V050 6000 -RA OVC005/// 04/03 Q1002
  • 190950Z AUTO 01009KT 350V050 8000 RA OVC004/// 04/03 Q1002 RESHUP RERA

Prévision TAF périmée.



MET'MAP, la Météo Aéronautique d'un coup d'oeil ! - Copyright ORBIFLY Décembre 2007 - Disclaimer

ORBIFLY MET'MAP TEAM :

Programmation & Développement : Alexandra Zaïnal
Conception & Développement : Baudouin d'Aumeries
Co-Programmation & Développement : Marc-Olivier Méhu
Soutien technique & logistique : Manuel Goepfert

Contact : metmap@orbifly.com




SOURCES & CREDITS :

   NOAA